sensor_id;sensor_type;location;lat;lon;timestamp;P1;durP1;ratioP1;P2;durP2;ratioP2
1753;SDS011;58380;48.312;9.246;2023-02-14T07:25:58;34.92;;;16.50;;
1753;SDS011;58380;48.312;9.246;2023-02-14T07:28:24;31.77;;;14.80;;
1753;SDS011;58380;48.312;9.246;2023-02-14T07:30:49;28.83;;;12.00;;
1753;SDS011;58380;48.312;9.246;2023-02-14T07:33:14;46.90;;;13.23;;
1753;SDS011;58380;48.312;9.246;2023-02-14T07:35:40;40.73;;;12.43;;
1753;SDS011;58380;48.312;9.246;2023-02-14T07:38:05;51.60;;;13.20;;
1753;SDS011;58380;48.312;9.246;2023-02-14T07:40:31;42.63;;;15.17;;
1753;SDS011;58380;48.312;9.246;2023-02-14T07:42:56;48.93;;;15.07;;
1753;SDS011;58380;48.312;9.246;2023-02-14T07:45:22;33.78;;;14.05;;
1753;SDS011;58380;48.312;9.246;2023-02-14T07:47:49;31.58;;;13.20;;
1753;SDS011;58380;48.312;9.246;2023-02-14T07:50:17;34.67;;;14.05;;
1753;SDS011;58380;48.312;9.246;2023-02-14T07:52:45;31.58;;;13.32;;
1753;SDS011;58380;48.312;9.246;2023-02-14T07:55:11;35.50;;;15.57;;
1753;SDS011;58380;48.312;9.246;2023-02-14T07:57:36;33.17;;;15.20;;
1753;SDS011;58380;48.312;9.246;2023-02-14T08:00:05;29.40;;;12.97;;
1753;SDS011;58380;48.312;9.246;2023-02-14T08:02:32;30.00;;;13.40;;
1753;SDS011;58380;48.312;9.246;2023-02-14T08:04:58;26.77;;;12.07;;
1753;SDS011;58380;48.312;9.246;2023-02-14T08:07:23;25.27;;;10.07;;
1753;SDS011;58380;48.312;9.246;2023-02-14T08:09:48;22.60;;;10.60;;
1753;SDS011;58380;48.312;9.246;2023-02-14T08:12:14;22.90;;;11.77;;
1753;SDS011;58380;48.312;9.246;2023-02-14T08:14:58;25.58;;;12.25;;
1753;SDS011;58380;48.312;9.246;2023-02-14T08:17:43;26.35;;;13.32;;
1753;SDS011;58380;48.312;9.246;2023-02-14T08:20:09;27.77;;;12.87;;
1753;SDS011;58380;48.312;9.246;2023-02-14T08:22:35;24.27;;;11.43;;
1753;SDS011;58380;48.312;9.246;2023-02-14T08:25:00;23.73;;;11.03;;
1753;SDS011;58380;48.312;9.246;2023-02-14T08:27:25;23.37;;;11.27;;
1753;SDS011;58380;48.312;9.246;2023-02-14T08:29:51;30.27;;;13.37;;
1753;SDS011;58380;48.312;9.246;2023-02-14T08:32:16;23.10;;;10.93;;
1753;SDS011;58380;48.312;9.246;2023-02-14T08:34:44;27.77;;;12.75;;
1753;SDS011;58380;48.312;9.246;2023-02-14T08:37:11;20.95;;;10.30;;
1753;SDS011;58380;48.312;9.246;2023-02-14T08:39:37;20.40;;;10.63;;
1753;SDS011;58380;48.312;9.246;2023-02-14T08:42:04;28.02;;;11.27;;
1753;SDS011;58380;48.312;9.246;2023-02-14T08:44:30;26.83;;;11.63;;
1753;SDS011;58380;48.312;9.246;2023-02-14T08:46:56;23.38;;;10.05;;
1753;SDS011;58380;48.312;9.246;2023-02-14T08:49:21;22.73;;;10.93;;
1753;SDS011;58380;48.312;9.246;2023-02-14T08:51:47;26.10;;;12.43;;
1753;SDS011;58380;48.312;9.246;2023-02-14T08:54:12;26.20;;;11.87;;
1753;SDS011;58380;48.312;9.246;2023-02-14T08:56:38;25.10;;;11.60;;
1753;SDS011;58380;48.312;9.246;2023-02-14T09:01:30;25.92;;;12.68;;
1753;SDS011;58380;48.312;9.246;2023-02-14T09:03:55;24.23;;;11.30;;
1753;SDS011;58380;48.312;9.246;2023-02-14T09:06:21;27.95;;;12.60;;
1753;SDS011;58380;48.312;9.246;2023-02-14T09:08:47;24.73;;;11.77;;
1753;SDS011;58380;48.312;9.246;2023-02-14T09:11:13;31.17;;;13.03;;
1753;SDS011;58380;48.312;9.246;2023-02-14T09:13:43;28.65;;;13.05;;
1753;SDS011;58380;48.312;9.246;2023-02-14T09:16:11;29.98;;;13.18;;
1753;SDS011;58380;48.312;9.246;2023-02-14T09:18:40;30.83;;;13.18;;
1753;SDS011;58380;48.312;9.246;2023-02-14T09:21:07;31.77;;;13.63;;
1753;SDS011;58380;48.312;9.246;2023-02-14T09:23:39;29.85;;;13.32;;
1753;SDS011;58380;48.312;9.246;2023-02-14T09:26:06;30.35;;;12.40;;
1753;SDS011;58380;48.312;9.246;2023-02-14T09:28:34;28.92;;;12.85;;
1753;SDS011;58380;48.312;9.246;2023-02-14T09:31:07;29.60;;;12.65;;
1753;SDS011;58380;48.312;9.246;2023-02-14T09:33:35;31.63;;;13.18;;
1753;SDS011;58380;48.312;9.246;2023-02-14T09:36:02;33.70;;;13.90;;
1753;SDS011;58380;48.312;9.246;2023-02-14T09:38:43;28.58;;;12.50;;
1753;SDS011;58380;48.312;9.246;2023-02-14T09:41:11;29.42;;;12.95;;
1753;SDS011;58380;48.312;9.246;2023-02-14T09:46:51;27.45;;;12.52;;
1753;SDS011;58380;48.312;9.246;2023-02-14T09:49:28;25.63;;;11.63;;
1753;SDS011;58380;48.312;9.246;2023-02-14T09:52:00;27.30;;;12.60;;
1753;SDS011;58380;48.312;9.246;2023-02-14T09:54:30;28.65;;;12.43;;
1753;SDS011;58380;48.312;9.246;2023-02-14T09:57:05;30.58;;;13.23;;
1753;SDS011;58380;48.312;9.246;2023-02-14T10:02:42;28.70;;;14.13;;
1753;SDS011;58380;48.312;9.246;2023-02-14T10:05:27;31.17;;;13.80;;
1753;SDS011;58380;48.312;9.246;2023-02-14T10:08:18;30.50;;;13.77;;
1753;SDS011;58380;48.312;9.246;2023-02-14T10:11:19;30.67;;;14.55;;
1753;SDS011;58380;48.312;9.246;2023-02-14T10:13:54;31.88;;;14.23;;
1753;SDS011;58380;48.312;9.246;2023-02-14T10:16:32;29.65;;;13.25;;
1753;SDS011;58380;48.312;9.246;2023-02-14T10:19:18;29.92;;;14.38;;
1753;SDS011;58380;48.312;9.246;2023-02-14T10:21:53;27.98;;;13.95;;
1753;SDS011;58380;48.312;9.246;2023-02-14T10:24:35;32.90;;;16.17;;
1753;SDS011;58380;48.312;9.246;2023-02-14T10:29:56;35.53;;;15.98;;
1753;SDS011;58380;48.312;9.246;2023-02-14T10:32:34;35.73;;;15.37;;
1753;SDS011;58380;48.312;9.246;2023-02-14T10:35:15;32.60;;;15.25;;
1753;SDS011;58380;48.312;9.246;2023-02-14T10:40:39;35.75;;;16.42;;
1753;SDS011;58380;48.312;9.246;2023-02-14T10:43:29;34.42;;;15.48;;
1753;SDS011;58380;48.312;9.246;2023-02-14T10:46:14;30.45;;;14.55;;
1753;SDS011;58380;48.312;9.246;2023-02-14T10:52:27;38.90;;;15.38;;
1753;SDS011;58380;48.312;9.246;2023-02-14T10:58:14;30.73;;;14.93;;
1753;SDS011;58380;48.312;9.246;2023-02-14T11:00:49;35.10;;;14.35;;
1753;SDS011;58380;48.312;9.246;2023-02-14T11:03:21;31.23;;;15.07;;
1753;SDS011;58380;48.312;9.246;2023-02-14T11:05:47;34.55;;;17.27;;
1753;SDS011;58380;48.312;9.246;2023-02-14T11:13:54;35.25;;;15.63;;
1753;SDS011;58380;48.312;9.246;2023-02-14T11:16:35;34.80;;;16.10;;
1753;SDS011;58380;48.312;9.246;2023-02-14T11:21:39;32.97;;;14.93;;
1753;SDS011;58380;48.312;9.246;2023-02-14T11:24:24;37.97;;;17.25;;
1753;SDS011;58380;48.312;9.246;2023-02-14T11:26:57;37.15;;;16.77;;
1753;SDS011;58380;48.312;9.246;2023-02-14T11:29:29;33.00;;;16.42;;
1753;SDS011;58380;48.312;9.246;2023-02-14T11:32:10;41.00;;;17.70;;
1753;SDS011;58380;48.312;9.246;2023-02-14T11:34:44;33.55;;;16.98;;
1753;SDS011;58380;48.312;9.246;2023-02-14T11:39:51;32.08;;;16.35;;
1753;SDS011;58380;48.312;9.246;2023-02-14T11:45:43;35.95;;;17.42;;
1753;SDS011;58380;48.312;9.246;2023-02-14T11:48:19;35.58;;;16.48;;
1753;SDS011;58380;48.312;9.246;2023-02-14T11:50:55;39.70;;;18.00;;
1753;SDS011;58380;48.312;9.246;2023-02-14T11:53:27;33.25;;;16.75;;
1753;SDS011;58380;48.312;9.246;2023-02-14T11:56:20;36.13;;;17.45;;
1753;SDS011;58380;48.312;9.246;2023-02-14T12:01:32;33.05;;;16.83;;
1753;SDS011;58380;48.312;9.246;2023-02-14T12:04:22;46.92;;;21.30;;
1753;SDS011;58380;48.312;9.246;2023-02-14T12:07:17;29.33;;;15.77;;
1753;SDS011;58380;48.312;9.246;2023-02-14T12:12:51;27.85;;;15.38;;
1753;SDS011;58380;48.312;9.246;2023-02-14T12:24:12;27.95;;;14.50;;
1753;SDS011;58380;48.312;9.246;2023-02-14T12:29:51;24.98;;;13.65;;
1753;SDS011;58380;48.312;9.246;2023-02-14T12:32:28;25.55;;;13.45;;
1753;SDS011;58380;48.312;9.246;2023-02-14T12:35:01;26.50;;;13.45;;
1753;SDS011;58380;48.312;9.246;2023-02-14T12:37:44;26.20;;;13.45;;
1753;SDS011;58380;48.312;9.246;2023-02-14T12:43:54;24.83;;;12.52;;
1753;SDS011;58380;48.312;9.246;2023-02-14T12:52:53;23.73;;;12.38;;
1753;SDS011;58380;48.312;9.246;2023-02-14T12:55:51;23.20;;;12.10;;
1753;SDS011;58380;48.312;9.246;2023-02-14T12:58:27;20.88;;;11.85;;
1753;SDS011;58380;48.312;9.246;2023-02-14T13:01:07;21.45;;;11.73;;
1753;SDS011;58380;48.312;9.246;2023-02-14T13:06:47;19.85;;;11.15;;
1753;SDS011;58380;48.312;9.246;2023-02-14T13:12:21;17.80;;;9.75;;
1753;SDS011;58380;48.312;9.246;2023-02-14T13:18:10;18.08;;;10.25;;
1753;SDS011;58380;48.312;9.246;2023-02-14T13:20:51;16.77;;;9.45;;
1753;SDS011;58380;48.312;9.246;2023-02-14T13:23:23;20.13;;;9.35;;
1753;SDS011;58380;48.312;9.246;2023-02-14T13:26:16;16.52;;;8.27;;
1753;SDS011;58380;48.312;9.246;2023-02-14T13:28:50;20.25;;;9.65;;
1753;SDS011;58380;48.312;9.246;2023-02-14T13:31:23;15.40;;;8.65;;
1753;SDS011;58380;48.312;9.246;2023-02-14T13:33:53;15.32;;;8.00;;
1753;SDS011;58380;48.312;9.246;2023-02-14T13:36:43;27.98;;;14.48;;
1753;SDS011;58380;48.312;9.246;2023-02-14T13:39:11;10.32;;;6.47;;
1753;SDS011;58380;48.312;9.246;2023-02-14T13:42:03;13.85;;;7.70;;
1753;SDS011;58380;48.312;9.246;2023-02-14T13:44:46;23.48;;;11.23;;
1753;SDS011;58380;48.312;9.246;2023-02-14T13:47:18;13.82;;;7.70;;
1753;SDS011;58380;48.312;9.246;2023-02-14T13:50:16;24.08;;;12.00;;
1753;SDS011;58380;48.312;9.246;2023-02-14T13:52:45;18.27;;;8.70;;
1753;SDS011;58380;48.312;9.246;2023-02-14T13:55:20;12.75;;;7.78;;
1753;SDS011;58380;48.312;9.246;2023-02-14T13:57:59;13.27;;;7.78;;
1753;SDS011;58380;48.312;9.246;2023-02-14T14:00:34;10.77;;;6.13;;
1753;SDS011;58380;48.312;9.246;2023-02-14T14:03:51;12.85;;;6.85;;
1753;SDS011;58380;48.312;9.246;2023-02-14T14:06:04;13.00;;;6.30;;
1753;SDS011;58380;48.312;9.246;2023-02-14T14:10:57;10.68;;;6.20;;
1753;SDS011;58380;48.312;9.246;2023-02-14T14:18:47;10.93;;;6.13;;
1753;SDS011;58380;48.312;9.246;2023-02-14T14:21:26;10.18;;;6.18;;
1753;SDS011;58380;48.312;9.246;2023-02-14T14:29:32;11.73;;;6.60;;
1753;SDS011;58380;48.312;9.246;2023-02-14T14:32:09;11.80;;;5.43;;
1753;SDS011;58380;48.312;9.246;2023-02-14T14:34:52;11.50;;;5.50;;
1753;SDS011;58380;48.312;9.246;2023-02-14T14:37:21;8.85;;;5.00;;
1753;SDS011;58380;48.312;9.246;2023-02-14T14:39:59;10.55;;;5.70;;
1753;SDS011;58380;48.312;9.246;2023-02-14T14:42:38;13.45;;;5.97;;
1753;SDS011;58380;48.312;9.246;2023-02-14T14:45:06;8.98;;;5.40;;
1753;SDS011;58380;48.312;9.246;2023-02-14T14:47:45;9.07;;;5.20;;
1753;SDS011;58380;48.312;9.246;2023-02-14T14:50:15;13.68;;;6.47;;
1753;SDS011;58380;48.312;9.246;2023-02-14T14:52:53;11.93;;;6.05;;
1753;SDS011;58380;48.312;9.246;2023-02-14T14:55:27;8.07;;;5.03;;
1753;SDS011;58380;48.312;9.246;2023-02-14T14:57:58;9.32;;;5.63;;
1753;SDS011;58380;48.312;9.246;2023-02-14T15:00:32;11.25;;;5.43;;
1753;SDS011;58380;48.312;9.246;2023-02-14T15:03:06;8.73;;;4.82;;
1753;SDS011;58380;48.312;9.246;2023-02-14T15:05:37;9.40;;;5.20;;
1753;SDS011;58380;48.312;9.246;2023-02-14T15:08:15;11.68;;;6.45;;
1753;SDS011;58380;48.312;9.246;2023-02-14T15:10:52;13.57;;;6.88;;
1753;SDS011;58380;48.312;9.246;2023-02-14T15:13:32;14.75;;;7.03;;
1753;SDS011;58380;48.312;9.246;2023-02-14T15:16:28;14.32;;;7.15;;
1753;SDS011;58380;48.312;9.246;2023-02-14T15:19:05;12.25;;;6.70;;
1753;SDS011;58380;48.312;9.246;2023-02-14T15:21:42;12.60;;;6.43;;
1753;SDS011;58380;48.312;9.246;2023-02-14T15:24:11;12.98;;;6.60;;
1753;SDS011;58380;48.312;9.246;2023-02-14T15:26:41;11.85;;;6.90;;
1753;SDS011;58380;48.312;9.246;2023-02-14T15:29:21;24.25;;;11.75;;
1753;SDS011;58380;48.312;9.246;2023-02-14T15:31:49;15.27;;;8.32;;
1753;SDS011;58380;48.312;9.246;2023-02-14T15:34:18;14.20;;;7.13;;
1753;SDS011;58380;48.312;9.246;2023-02-14T15:36:48;12.48;;;6.95;;
1753;SDS011;58380;48.312;9.246;2023-02-14T15:39:18;10.25;;;6.55;;
1753;SDS011;58380;48.312;9.246;2023-02-14T15:41:52;16.40;;;8.07;;
1753;SDS011;58380;48.312;9.246;2023-02-14T15:44:23;13.27;;;7.55;;
1753;SDS011;58380;48.312;9.246;2023-02-14T15:46:53;14.07;;;7.40;;
1753;SDS011;58380;48.312;9.246;2023-02-14T15:49:23;14.70;;;7.78;;
1753;SDS011;58380;48.312;9.246;2023-02-14T15:51:58;15.85;;;9.18;;
1753;SDS011;58380;48.312;9.246;2023-02-14T15:54:32;19.02;;;9.18;;
1753;SDS011;58380;48.312;9.246;2023-02-14T15:57:03;18.17;;;8.52;;
1753;SDS011;58380;48.312;9.246;2023-02-14T15:59:32;21.65;;;8.95;;
1753;SDS011;58380;48.312;9.246;2023-02-14T16:04:44;18.92;;;9.90;;
1753;SDS011;58380;48.312;9.246;2023-02-14T16:07:23;19.23;;;9.82;;
1753;SDS011;58380;48.312;9.246;2023-02-14T16:15:57;24.35;;;11.45;;
1753;SDS011;58380;48.312;9.246;2023-02-14T16:18:46;25.80;;;11.20;;
1753;SDS011;58380;48.312;9.246;2023-02-14T16:21:16;21.73;;;11.18;;
1753;SDS011;58380;48.312;9.246;2023-02-14T16:26:29;22.27;;;10.98;;
1753;SDS011;58380;48.312;9.246;2023-02-14T16:28:55;24.38;;;12.45;;
1753;SDS011;58380;48.312;9.246;2023-02-14T16:31:21;19.23;;;11.27;;
1753;SDS011;58380;48.312;9.246;2023-02-14T16:33:46;24.33;;;11.60;;
1753;SDS011;58380;48.312;9.246;2023-02-14T16:38:57;21.02;;;10.82;;
1753;SDS011;58380;48.312;9.246;2023-02-14T16:41:29;19.65;;;10.35;;
1753;SDS011;58380;48.312;9.246;2023-02-14T16:43:56;19.25;;;9.82;;
1753;SDS011;58380;48.312;9.246;2023-02-14T16:46:23;29.67;;;13.67;;
1753;SDS011;58380;48.312;9.246;2023-02-14T16:48:58;24.33;;;12.27;;
1753;SDS011;58380;48.312;9.246;2023-02-14T16:51:26;22.55;;;12.00;;
1753;SDS011;58380;48.312;9.246;2023-02-14T16:53:56;18.80;;;9.80;;
1753;SDS011;58380;48.312;9.246;2023-02-14T16:56:25;17.88;;;8.90;;
1753;SDS011;58380;48.312;9.246;2023-02-14T16:58:56;17.88;;;9.25;;
1753;SDS011;58380;48.312;9.246;2023-02-14T17:01:22;20.60;;;10.00;;
1753;SDS011;58380;48.312;9.246;2023-02-14T17:03:48;17.40;;;8.93;;
1753;SDS011;58380;48.312;9.246;2023-02-14T17:06:14;16.13;;;8.23;;
1753;SDS011;58380;48.312;9.246;2023-02-14T17:08:44;14.48;;;7.40;;
1753;SDS011;58380;48.312;9.246;2023-02-14T17:11:12;16.33;;;7.68;;
1753;SDS011;58380;48.312;9.246;2023-02-14T17:13:39;13.77;;;6.57;;
1753;SDS011;58380;48.312;9.246;2023-02-14T17:16:08;17.13;;;7.18;;
1753;SDS011;58380;48.312;9.246;2023-02-14T17:18:36;18.42;;;9.10;;
1753;SDS011;58380;48.312;9.246;2023-02-14T17:21:06;21.10;;;9.25;;
1753;SDS011;58380;48.312;9.246;2023-02-14T17:23:31;19.73;;;8.60;;
1753;SDS011;58380;48.312;9.246;2023-02-14T17:25:56;14.83;;;9.13;;
1753;SDS011;58380;48.312;9.246;2023-02-14T17:28:22;16.73;;;8.23;;
1753;SDS011;58380;48.312;9.246;2023-02-14T17:30:50;14.50;;;8.82;;
1753;SDS011;58380;48.312;9.246;2023-02-14T17:33:17;14.00;;;7.78;;
1753;SDS011;58380;48.312;9.246;2023-02-14T17:35:44;14.40;;;8.32;;
1753;SDS011;58380;48.312;9.246;2023-02-14T17:38:10;16.05;;;8.63;;
1753;SDS011;58380;48.312;9.246;2023-02-14T17:40:36;14.20;;;7.72;;
1753;SDS011;58380;48.312;9.246;2023-02-14T17:43:02;12.70;;;6.88;;
1753;SDS011;58380;48.312;9.246;2023-02-14T17:45:27;12.43;;;7.30;;
1753;SDS011;58380;48.312;9.246;2023-02-14T17:47:53;12.23;;;6.70;;
1753;SDS011;58380;48.312;9.246;2023-02-14T17:50:19;13.80;;;7.07;;
1753;SDS011;58380;48.312;9.246;2023-02-14T17:52:44;13.80;;;6.93;;
1753;SDS011;58380;48.312;9.246;2023-02-14T17:55:10;12.03;;;6.80;;
1753;SDS011;58380;48.312;9.246;2023-02-14T18:00:05;13.35;;;7.03;;
1753;SDS011;58380;48.312;9.246;2023-02-14T18:02:31;14.82;;;6.70;;
1753;SDS011;58380;48.312;9.246;2023-02-14T18:04:57;13.93;;;7.50;;
1753;SDS011;58380;48.312;9.246;2023-02-14T18:07:23;16.43;;;7.87;;
1753;SDS011;58380;48.312;9.246;2023-02-14T18:09:49;16.27;;;8.95;;
1753;SDS011;58380;48.312;9.246;2023-02-14T18:12:15;20.95;;;8.70;;
1753;SDS011;58380;48.312;9.246;2023-02-14T18:14:41;15.00;;;8.88;;
1753;SDS011;58380;48.312;9.246;2023-02-14T18:17:07;13.40;;;8.52;;
1753;SDS011;58380;48.312;9.246;2023-02-14T18:19:32;14.63;;;7.97;;
1753;SDS011;58380;48.312;9.246;2023-02-14T18:21:58;14.82;;;8.48;;
1753;SDS011;58380;48.312;9.246;2023-02-14T18:24:23;19.17;;;9.15;;
1753;SDS011;58380;48.312;9.246;2023-02-14T18:26:49;21.83;;;11.02;;
1753;SDS011;58380;48.312;9.246;2023-02-14T18:29:15;19.53;;;10.43;;
1753;SDS011;58380;48.312;9.246;2023-02-14T18:31:41;16.88;;;8.95;;
1753;SDS011;58380;48.312;9.246;2023-02-14T18:34:08;20.73;;;11.50;;
1753;SDS011;58380;48.312;9.246;2023-02-14T18:36:35;22.80;;;12.10;;
1753;SDS011;58380;48.312;9.246;2023-02-14T18:39:03;21.83;;;10.85;;
1753;SDS011;58380;48.312;9.246;2023-02-14T18:41:29;22.63;;;11.40;;
1753;SDS011;58380;48.312;9.246;2023-02-14T18:43:55;24.73;;;11.95;;
1753;SDS011;58380;48.312;9.246;2023-02-14T18:46:21;21.55;;;10.43;;
1753;SDS011;58380;48.312;9.246;2023-02-14T18:48:54;21.58;;;10.13;;
1753;SDS011;58380;48.312;9.246;2023-02-14T18:51:22;24.42;;;10.52;;
1753;SDS011;58380;48.312;9.246;2023-02-14T18:53:51;22.45;;;10.25;;
1753;SDS011;58380;48.312;9.246;2023-02-14T18:56:20;22.40;;;10.63;;
1753;SDS011;58380;48.312;9.246;2023-02-14T18:58:57;20.50;;;9.95;;
1753;SDS011;58380;48.312;9.246;2023-02-14T19:01:26;17.90;;;9.23;;
1753;SDS011;58380;48.312;9.246;2023-02-14T19:03:57;20.83;;;9.45;;
1753;SDS011;58380;48.312;9.246;2023-02-14T19:06:25;23.42;;;9.35;;
1753;SDS011;58380;48.312;9.246;2023-02-14T19:08:53;20.20;;;9.55;;
1753;SDS011;58380;48.312;9.246;2023-02-14T19:13:52;16.70;;;8.18;;
1753;SDS011;58380;48.312;9.246;2023-02-14T19:16:22;18.67;;;9.18;;
1753;SDS011;58380;48.312;9.246;2023-02-14T19:18:55;18.20;;;8.60;;
1753;SDS011;58380;48.312;9.246;2023-02-14T19:21:23;22.65;;;8.68;;
1753;SDS011;58380;48.312;9.246;2023-02-14T19:23:52;16.17;;;8.98;;
1753;SDS011;58380;48.312;9.246;2023-02-14T19:26:29;19.40;;;9.77;;
1753;SDS011;58380;48.312;9.246;2023-02-14T19:28:59;24.02;;;9.93;;
1753;SDS011;58380;48.312;9.246;2023-02-14T19:31:33;22.73;;;10.60;;
1753;SDS011;58380;48.312;9.246;2023-02-14T19:34:01;19.70;;;10.48;;
1753;SDS011;58380;48.312;9.246;2023-02-14T19:36:29;22.38;;;10.98;;
1753;SDS011;58380;48.312;9.246;2023-02-14T19:38:54;27.63;;;11.30;;
1753;SDS011;58380;48.312;9.246;2023-02-14T19:41:21;28.50;;;12.35;;
1753;SDS011;58380;48.312;9.246;2023-02-14T19:43:57;28.15;;;12.90;;
1753;SDS011;58380;48.312;9.246;2023-02-14T19:46:24;27.83;;;13.48;;
1753;SDS011;58380;48.312;9.246;2023-02-14T19:48:52;30.10;;;14.55;;
1753;SDS011;58380;48.312;9.246;2023-02-14T19:51:21;25.53;;;12.80;;
1753;SDS011;58380;48.312;9.246;2023-02-14T19:53:51;26.40;;;13.23;;
1753;SDS011;58380;48.312;9.246;2023-02-14T19:56:18;26.65;;;11.77;;
1753;SDS011;58380;48.312;9.246;2023-02-14T19:58:47;25.08;;;12.10;;
1753;SDS011;58380;48.312;9.246;2023-02-14T20:01:18;32.03;;;14.75;;
1753;SDS011;58380;48.312;9.246;2023-02-14T20:03:50;51.33;;;23.08;;
1753;SDS011;58380;48.312;9.246;2023-02-14T20:06:17;38.70;;;18.58;;
1753;SDS011;58380;48.312;9.246;2023-02-14T20:08:43;33.83;;;16.15;;
1753;SDS011;58380;48.312;9.246;2023-02-14T20:11:18;35.70;;;15.47;;
1753;SDS011;58380;48.312;9.246;2023-02-14T20:13:57;23.67;;;10.38;;
1753;SDS011;58380;48.312;9.246;2023-02-14T20:16:24;23.92;;;10.57;;
1753;SDS011;58380;48.312;9.246;2023-02-14T20:18:53;25.40;;;11.65;;
1753;SDS011;58380;48.312;9.246;2023-02-14T20:21:20;42.33;;;18.48;;
1753;SDS011;58380;48.312;9.246;2023-02-14T20:23:50;31.77;;;15.65;;
1753;SDS011;58380;48.312;9.246;2023-02-14T20:26:16;52.17;;;21.08;;
1753;SDS011;58380;48.312;9.246;2023-02-14T20:28:42;35.47;;;16.73;;
1753;SDS011;58380;48.312;9.246;2023-02-14T20:31:09;40.90;;;18.05;;
1753;SDS011;58380;48.312;9.246;2023-02-14T20:33:37;29.27;;;12.73;;
1753;SDS011;58380;48.312;9.246;2023-02-14T20:38:31;38.13;;;15.63;;
1753;SDS011;58380;48.312;9.246;2023-02-14T20:40:57;30.67;;;14.75;;
1753;SDS011;58380;48.312;9.246;2023-02-14T20:43:34;32.35;;;15.63;;
1753;SDS011;58380;48.312;9.246;2023-02-14T20:46:00;33.67;;;16.00;;
1753;SDS011;58380;48.312;9.246;2023-02-14T20:48:28;35.15;;;16.83;;
1753;SDS011;58380;48.312;9.246;2023-02-14T20:50:54;38.58;;;17.45;;
1753;SDS011;58380;48.312;9.246;2023-02-14T20:53:20;34.72;;;17.60;;
1753;SDS011;58380;48.312;9.246;2023-02-14T20:55:50;37.65;;;16.92;;
1753;SDS011;58380;48.312;9.246;2023-02-14T20:58:16;33.10;;;16.50;;
1753;SDS011;58380;48.312;9.246;2023-02-14T21:00:45;33.17;;;15.68;;
1753;SDS011;58380;48.312;9.246;2023-02-14T21:03:12;30.15;;;14.13;;
1753;SDS011;58380;48.312;9.246;2023-02-14T21:05:38;28.30;;;13.57;;
1753;SDS011;58380;48.312;9.246;2023-02-14T21:08:04;26.85;;;14.15;;
1753;SDS011;58380;48.312;9.246;2023-02-14T21:10:29;28.83;;;14.60;;
1753;SDS011;58380;48.312;9.246;2023-02-14T21:12:55;25.57;;;12.60;;
1753;SDS011;58380;48.312;9.246;2023-02-14T21:15:20;29.03;;;14.43;;
1753;SDS011;58380;48.312;9.246;2023-02-14T21:17:46;30.33;;;15.38;;
1753;SDS011;58380;48.312;9.246;2023-02-14T21:20:11;23.73;;;12.73;;
1753;SDS011;58380;48.312;9.246;2023-02-14T21:22:38;20.67;;;10.77;;
1753;SDS011;58380;48.312;9.246;2023-02-14T21:25:04;28.98;;;13.77;;
1753;SDS011;58380;48.312;9.246;2023-02-14T21:27:31;26.65;;;12.93;;
1753;SDS011;58380;48.312;9.246;2023-02-14T21:29:57;31.20;;;13.80;;
1753;SDS011;58380;48.312;9.246;2023-02-14T21:32:22;34.60;;;13.87;;
1753;SDS011;58380;48.312;9.246;2023-02-14T21:34:47;31.37;;;14.43;;
1753;SDS011;58380;48.312;9.246;2023-02-14T21:37:13;27.40;;;13.82;;
1753;SDS011;58380;48.312;9.246;2023-02-14T21:39:39;30.58;;;14.90;;
1753;SDS011;58380;48.312;9.246;2023-02-14T21:42:05;30.70;;;13.93;;
1753;SDS011;58380;48.312;9.246;2023-02-14T21:44:31;26.92;;;13.85;;
1753;SDS011;58380;48.312;9.246;2023-02-14T21:47:17;33.70;;;15.75;;
1753;SDS011;58380;48.312;9.246;2023-02-14T21:49:43;34.85;;;16.10;;
1753;SDS011;58380;48.312;9.246;2023-02-14T21:52:26;35.08;;;17.52;;
1753;SDS011;58380;48.312;9.246;2023-02-14T21:54:54;36.83;;;17.50;;
1753;SDS011;58380;48.312;9.246;2023-02-14T21:57:20;46.42;;;21.40;;
1753;SDS011;58380;48.312;9.246;2023-02-14T21:59:46;38.00;;;18.83;;
1753;SDS011;58380;48.312;9.246;2023-02-14T22:02:11;37.47;;;19.40;;
1753;SDS011;58380;48.312;9.246;2023-02-14T22:04:36;39.43;;;18.43;;
1753;SDS011;58380;48.312;9.246;2023-02-14T22:07:02;36.90;;;16.23;;
1753;SDS011;58380;48.312;9.246;2023-02-14T22:09:28;32.90;;;15.88;;
1753;SDS011;58380;48.312;9.246;2023-02-14T22:11:54;32.97;;;15.90;;
1753;SDS011;58380;48.312;9.246;2023-02-14T22:14:19;36.83;;;16.90;;
1753;SDS011;58380;48.312;9.246;2023-02-14T22:16:45;36.80;;;16.60;;
1753;SDS011;58380;48.312;9.246;2023-02-14T22:19:11;29.07;;;15.53;;
1753;SDS011;58380;48.312;9.246;2023-02-14T22:21:40;30.30;;;13.27;;
1753;SDS011;58380;48.312;9.246;2023-02-14T22:24:07;29.80;;;14.60;;
1753;SDS011;58380;48.312;9.246;2023-02-14T22:26:34;34.27;;;15.30;;
1753;SDS011;58380;48.312;9.246;2023-02-14T22:29:05;58.83;;;17.58;;
1753;SDS011;58380;48.312;9.246;2023-02-14T22:31:35;58.50;;;19.15;;
1753;SDS011;58380;48.312;9.246;2023-02-14T22:34:04;73.70;;;23.90;;
1753;SDS011;58380;48.312;9.246;2023-02-14T22:36:32;56.83;;;20.05;;
1753;SDS011;58380;48.312;9.246;2023-02-14T22:38:58;62.55;;;21.13;;
1753;SDS011;58380;48.312;9.246;2023-02-14T22:41:23;79.90;;;22.43;;
1753;SDS011;58380;48.312;9.246;2023-02-14T22:43:50;74.75;;;19.70;;
1753;SDS011;58380;48.312;9.246;2023-02-14T22:46:18;69.60;;;18.80;;
1753;SDS011;58380;48.312;9.246;2023-02-14T22:48:50;100.97;;;21.50;;
1753;SDS011;58380;48.312;9.246;2023-02-14T22:51:33;81.45;;;20.80;;
1753;SDS011;58380;48.312;9.246;2023-02-14T22:54:11;77.53;;;21.25;;
1753;SDS011;58380;48.312;9.246;2023-02-14T22:56:41;98.78;;;20.83;;
1753;SDS011;58380;48.312;9.246;2023-02-14T22:59:13;129.50;;;22.60;;
1753;SDS011;58380;48.312;9.246;2023-02-14T23:01:42;230.35;;;24.45;;
1753;SDS011;58380;48.312;9.246;2023-02-14T23:04:08;98.35;;;20.45;;
1753;SDS011;58380;48.312;9.246;2023-02-14T23:06:34;297.15;;;26.90;;
